createdAt,value
2018-08-20T00:00:50.812Z,10.10
2018-08-20T00:03:19.103Z,9.50
2018-08-20T00:05:52.602Z,9.03
2018-08-20T00:08:21.319Z,9.60
2018-08-20T00:10:52.810Z,9.13
2018-08-20T00:13:21.092Z,9.07
2018-08-20T00:15:49.419Z,9.70
2018-08-20T00:18:21.956Z,9.73
2018-08-20T00:20:50.253Z,10.17
2018-08-20T00:23:18.532Z,9.57
2018-08-20T00:25:46.812Z,9.83
2018-08-20T00:28:15.108Z,9.47
2018-08-20T00:30:43.409Z,9.90
2018-08-20T00:33:11.733Z,9.50
2018-08-20T00:35:40.017Z,9.63
2018-08-20T00:38:08.304Z,9.43
2018-08-20T00:40:36.580Z,9.43
2018-08-20T00:43:04.917Z,9.90
2018-08-20T00:45:33.189Z,9.67
2018-08-20T00:48:01.501Z,9.57
2018-08-20T00:50:29.769Z,9.67
2018-08-20T00:52:58.036Z,9.73
2018-08-20T00:55:26.336Z,9.60
2018-08-20T00:57:54.624Z,9.87
2018-08-20T01:00:22.931Z,9.87
2018-08-20T01:02:51.200Z,9.33
2018-08-20T01:05:19.497Z,9.83
2018-08-20T01:07:47.769Z,9.63
2018-08-20T01:10:16.088Z,9.93
2018-08-20T01:12:44.393Z,9.70
2018-08-20T01:15:12.696Z,9.47
2018-08-20T01:17:40.981Z,9.57
2018-08-20T01:20:09.260Z,9.40
2018-08-20T01:22:37.532Z,9.87
2018-08-20T01:25:05.830Z,10.27
2018-08-20T01:27:34.120Z,9.60
2018-08-20T01:30:02.408Z,10.20
2018-08-20T01:32:30.701Z,9.77
2018-08-20T01:35:14.657Z,9.57
2018-08-20T01:37:42.936Z,10.00
2018-08-20T01:40:11.250Z,10.07
2018-08-20T01:42:39.530Z,10.00
2018-08-20T01:45:07.856Z,10.00
2018-08-20T01:47:36.166Z,10.50
2018-08-20T01:50:04.711Z,10.20
2018-08-20T01:52:33.029Z,9.97
2018-08-20T01:55:01.332Z,10.17
2018-08-20T01:57:29.624Z,9.33
2018-08-20T01:59:57.939Z,10.13
2018-08-20T02:02:26.184Z,9.90
2018-08-20T02:04:54.600Z,9.93
2018-08-20T02:07:22.889Z,10.30
2018-08-20T02:09:51.199Z,11.00
2018-08-20T02:12:19.489Z,9.90
2018-08-20T02:14:47.796Z,10.60
2018-08-20T02:17:16.098Z,10.00
2018-08-20T02:19:44.377Z,10.10
2018-08-20T02:22:12.651Z,9.80
2018-08-20T02:24:40.928Z,10.13
2018-08-20T02:27:09.243Z,10.20
2018-08-20T02:29:37.566Z,10.13
2018-08-20T02:32:05.963Z,10.07
2018-08-20T02:34:34.243Z,9.90
2018-08-20T02:37:02.521Z,9.93
2018-08-20T02:39:30.826Z,11.33
2018-08-20T02:41:59.128Z,10.87
2018-08-20T02:44:27.429Z,11.40
2018-08-20T02:46:55.830Z,10.13
2018-08-20T02:49:24.129Z,10.33
2018-08-20T02:51:52.416Z,10.43
2018-08-20T02:54:20.754Z,10.70
2018-08-20T02:56:49.096Z,10.73
2018-08-20T02:59:17.401Z,10.90
2018-08-20T03:01:45.681Z,10.57
2018-08-20T03:04:13.969Z,10.70
2018-08-20T03:06:42.254Z,10.33
2018-08-20T03:09:15.116Z,10.50
2018-08-20T03:11:43.417Z,10.90
2018-08-20T03:14:12.484Z,10.63
2018-08-20T03:16:40.804Z,11.50
2018-08-20T03:19:10.064Z,10.73
2018-08-20T03:21:38.365Z,11.53
2018-08-20T03:24:06.964Z,11.03
2018-08-20T03:26:35.271Z,10.70
2018-08-20T03:29:04.420Z,11.23
2018-08-20T03:31:32.724Z,10.63
2018-08-20T03:34:00.998Z,10.43
2018-08-20T03:36:29.297Z,11.10
2018-08-20T03:38:57.581Z,10.90
2018-08-20T03:41:25.864Z,11.27
2018-08-20T03:43:54.137Z,11.60
2018-08-20T03:46:22.422Z,10.93
2018-08-20T03:48:50.708Z,11.80
2018-08-20T03:51:19.087Z,11.00
2018-08-20T03:53:47.425Z,10.70
2018-08-20T03:56:15.657Z,11.43
2018-08-20T03:58:43.961Z,10.53
2018-08-20T04:01:12.268Z,11.37
2018-08-20T04:03:40.553Z,11.03
2018-08-20T04:06:08.852Z,11.33
2018-08-20T04:08:37.121Z,11.40
2018-08-20T04:11:05.409Z,11.43
2018-08-20T04:13:33.689Z,11.57
2018-08-20T04:16:01.963Z,10.80
2018-08-20T04:18:30.268Z,11.27
2018-08-20T04:20:58.554Z,11.00
2018-08-20T04:23:26.845Z,11.40
2018-08-20T04:25:55.169Z,11.60
2018-08-20T04:28:23.456Z,11.23
2018-08-20T04:30:51.728Z,11.40
2018-08-20T04:33:20.020Z,11.67
2018-08-20T04:35:48.293Z,11.60
2018-08-20T04:38:16.584Z,11.70
2018-08-20T04:40:44.861Z,11.97
2018-08-20T04:43:13.144Z,11.47
2018-08-20T04:45:41.433Z,10.73
2018-08-20T04:48:09.741Z,11.00
2018-08-20T04:50:38.152Z,11.37
2018-08-20T04:53:06.345Z,10.87
2018-08-20T04:55:34.632Z,11.27
2018-08-20T04:58:02.933Z,11.33
2018-08-20T05:00:31.241Z,11.37
2018-08-20T05:02:59.501Z,10.97
2018-08-20T05:05:27.799Z,10.97
2018-08-20T05:07:56.084Z,11.33
2018-08-20T05:10:24.369Z,10.80
2018-08-20T05:12:52.668Z,11.17
2018-08-20T05:15:20.966Z,11.27
2018-08-20T05:17:49.273Z,11.63
2018-08-20T05:20:17.557Z,11.70
2018-08-20T05:22:45.844Z,10.60
2018-08-20T05:25:14.149Z,11.67
2018-08-20T05:27:42.416Z,10.97
2018-08-20T05:30:10.740Z,10.70
2018-08-20T05:32:39.016Z,10.97
2018-08-20T05:35:07.626Z,10.80
2018-08-20T05:37:36.092Z,11.17
2018-08-20T05:40:04.462Z,11.17
2018-08-20T05:42:32.753Z,10.03
2018-08-20T05:45:01.069Z,10.13
2018-08-20T05:47:29.371Z,11.87
2018-08-20T05:49:57.641Z,10.30
2018-08-20T05:52:26.021Z,10.27
2018-08-20T05:54:54.250Z,9.03
2018-08-20T05:57:22.537Z,10.67
2018-08-20T05:59:50.812Z,9.63
2018-08-20T06:02:19.139Z,9.30
2018-08-20T06:04:47.434Z,9.90
2018-08-20T06:07:15.708Z,10.03
2018-08-20T06:09:44.028Z,10.23
2018-08-20T06:12:12.336Z,9.80
2018-08-20T06:14:40.661Z,9.63
2018-08-20T06:17:08.885Z,9.70
2018-08-20T06:19:38.264Z,9.17
2018-08-20T06:22:06.569Z,9.10
2018-08-20T06:24:35.182Z,10.93
2018-08-20T06:27:03.556Z,9.63
2018-08-20T06:29:31.816Z,9.77
2018-08-20T06:32:00.113Z,9.10
2018-08-20T06:34:28.376Z,8.80
2018-08-20T06:36:56.885Z,9.53
2018-08-20T06:39:25.173Z,9.10
2018-08-20T06:41:53.462Z,9.00
2018-08-20T06:44:21.733Z,9.17
2018-08-20T06:46:50.012Z,8.77
2018-08-20T06:49:18.299Z,8.10
2018-08-20T06:51:46.564Z,8.37
2018-08-20T06:54:14.833Z,7.93
2018-08-20T06:56:43.141Z,9.07
2018-08-20T06:59:11.447Z,7.93
2018-08-20T07:01:39.858Z,7.90
2018-08-20T07:04:08.315Z,8.00
2018-08-20T07:06:36.580Z,7.10
2018-08-20T07:09:05.856Z,7.20
2018-08-20T07:11:34.164Z,7.93
2018-08-20T07:14:02.472Z,7.33
2018-08-20T07:16:30.736Z,6.40
2018-08-20T07:18:59.060Z,6.60
2018-08-20T07:21:27.369Z,6.60
2018-08-20T07:23:55.690Z,6.50
2018-08-20T07:26:23.949Z,6.80
2018-08-20T07:28:52.244Z,7.10
2018-08-20T07:31:20.561Z,6.10
2018-08-20T07:33:48.852Z,6.00
2018-08-20T07:36:17.125Z,6.23
2018-08-20T07:38:45.433Z,6.00
2018-08-20T07:41:13.708Z,10.97
2018-08-20T07:43:42.027Z,6.10
2018-08-20T07:46:10.313Z,7.77
2018-08-20T07:48:38.642Z,5.53
2018-08-20T07:51:07.051Z,5.80
2018-08-20T07:53:35.325Z,5.43
2018-08-20T07:56:03.673Z,5.90
2018-08-20T07:58:31.972Z,6.13
2018-08-20T08:01:00.264Z,5.50
2018-08-20T08:03:30.385Z,6.20
2018-08-20T08:06:00.169Z,5.43
2018-08-20T08:08:28.478Z,5.47
2018-08-20T08:10:56.791Z,5.43
2018-08-20T08:13:25.101Z,5.60
2018-08-20T08:15:53.374Z,5.50
2018-08-20T08:18:21.668Z,5.70
2018-08-20T08:20:49.981Z,5.10
2018-08-20T08:23:18.250Z,5.17
2018-08-20T08:25:46.549Z,5.50
2018-08-20T08:28:14.845Z,5.20
2018-08-20T08:30:43.157Z,5.33
2018-08-20T08:33:11.440Z,5.13
2018-08-20T08:35:39.717Z,5.00
2018-08-20T08:38:08.099Z,5.00
2018-08-20T08:40:36.353Z,5.03
2018-08-20T08:43:04.660Z,5.07
2018-08-20T08:45:32.928Z,5.13
2018-08-20T08:48:01.217Z,4.93
2018-08-20T08:50:29.564Z,5.13
2018-08-20T08:52:57.862Z,4.87
2018-08-20T08:55:26.148Z,5.13
2018-08-20T08:57:54.412Z,4.97
2018-08-20T09:00:22.757Z,5.17
2018-08-20T09:02:50.973Z,5.20
2018-08-20T09:05:19.271Z,5.63
2018-08-20T09:07:47.553Z,5.00
2018-08-20T09:10:15.879Z,4.90
2018-08-20T09:12:44.175Z,5.17
2018-08-20T09:15:17.325Z,4.40
2018-08-20T09:17:45.903Z,4.97
2018-08-20T09:20:15.515Z,4.97
2018-08-20T09:22:43.862Z,4.83
2018-08-20T09:25:12.981Z,5.03
2018-08-20T09:27:42.287Z,7.90
2018-08-20T09:30:16.456Z,5.20
2018-08-20T09:32:45.504Z,5.10
2018-08-20T09:35:13.829Z,5.20
2018-08-20T09:37:42.431Z,8.30
2018-08-20T09:40:11.125Z,4.77
2018-08-20T09:42:40.235Z,4.70
2018-08-20T09:45:08.591Z,4.57
2018-08-20T09:47:38.125Z,4.73
2018-08-20T09:50:07.921Z,4.83
2018-08-20T09:52:36.248Z,5.03
2018-08-20T09:55:05.117Z,4.87
2018-08-20T09:57:33.386Z,5.13
2018-08-20T10:00:01.766Z,5.07
2018-08-20T10:02:30.029Z,4.87
2018-08-20T10:04:58.861Z,5.57
2018-08-20T10:07:27.214Z,5.00
2018-08-20T10:09:55.460Z,4.97
2018-08-20T10:12:23.764Z,4.90
2018-08-20T10:14:52.041Z,5.07
2018-08-20T10:17:20.305Z,4.70
2018-08-20T10:19:48.572Z,4.97
2018-08-20T10:22:16.849Z,4.87
2018-08-20T10:24:46.602Z,5.40
2018-08-20T10:27:15.105Z,5.23
2018-08-20T10:29:43.429Z,5.80
2018-08-20T10:32:13.020Z,5.80
2018-08-20T10:34:41.884Z,5.40
2018-08-20T10:37:11.036Z,5.37
2018-08-20T10:39:39.374Z,5.03
2018-08-20T10:42:07.716Z,5.43
2018-08-20T10:44:41.313Z,5.57
2018-08-20T10:47:09.628Z,5.40
2018-08-20T10:49:37.885Z,5.23
2018-08-20T10:52:06.369Z,4.70
2018-08-20T10:54:34.676Z,5.70
2018-08-20T10:57:03.344Z,5.50
2018-08-20T10:59:31.605Z,5.70
2018-08-20T11:01:59.909Z,4.97
2018-08-20T11:04:28.173Z,5.07
2018-08-20T11:06:56.472Z,5.50
2018-08-20T11:09:24.796Z,6.00
2018-08-20T11:11:53.061Z,5.50
2018-08-20T11:14:21.373Z,4.90
2018-08-20T11:16:49.645Z,5.27
2018-08-20T11:19:17.924Z,5.57
2018-08-20T11:21:46.304Z,4.60
2018-08-20T11:24:14.581Z,5.10
2018-08-20T11:26:42.980Z,5.23
2018-08-20T11:29:11.251Z,5.50
2018-08-20T11:31:39.525Z,4.70
2018-08-20T11:34:07.805Z,5.23
2018-08-20T11:36:36.082Z,5.17
2018-08-20T11:39:06.180Z,5.50
2018-08-20T11:41:34.605Z,5.47
2018-08-20T11:44:02.922Z,5.50
2018-08-20T11:46:31.396Z,5.17
2018-08-20T11:48:59.852Z,5.77
2018-08-20T11:51:28.115Z,5.30
2018-08-20T11:53:56.401Z,5.43
2018-08-20T11:56:24.662Z,5.40
2018-08-20T11:58:53.964Z,5.60
2018-08-20T12:01:22.221Z,5.63
2018-08-20T12:03:55.346Z,4.87
2018-08-20T12:06:24.649Z,5.63
2018-08-20T12:08:53.336Z,5.47
2018-08-20T12:11:21.636Z,5.70
2018-08-20T12:13:50.287Z,5.33
2018-08-20T12:16:18.574Z,5.50
2018-08-20T12:18:46.848Z,5.53
2018-08-20T12:21:15.113Z,5.57
2018-08-20T12:23:44.210Z,5.70
2018-08-20T12:26:12.504Z,5.40
2018-08-20T12:28:40.780Z,5.47
2018-08-20T12:31:09.068Z,5.33
2018-08-20T12:33:37.346Z,5.03
2018-08-20T12:36:05.631Z,5.23
2018-08-20T12:38:33.948Z,5.30
2018-08-20T12:41:02.224Z,4.87
2018-08-20T12:43:30.496Z,5.17
2018-08-20T12:45:58.778Z,5.60
2018-08-20T12:48:27.079Z,5.60
2018-08-20T12:50:55.336Z,5.53
2018-08-20T12:53:23.625Z,5.17
2018-08-20T12:55:51.923Z,5.47
2018-08-20T12:58:20.210Z,5.50
2018-08-20T13:00:48.530Z,5.60
2018-08-20T13:03:16.770Z,5.57
2018-08-20T13:05:45.061Z,5.10
2018-08-20T13:08:13.349Z,6.00
2018-08-20T13:10:41.616Z,5.90
2018-08-20T13:13:09.923Z,6.10
2018-08-20T13:15:38.224Z,5.43
2018-08-20T13:18:06.555Z,5.90
2018-08-20T13:20:34.842Z,5.70
2018-08-20T13:23:03.137Z,5.17
2018-08-20T13:25:31.411Z,5.97
2018-08-20T13:27:59.668Z,5.30
2018-08-20T13:30:27.936Z,6.00
2018-08-20T13:32:56.204Z,5.77
2018-08-20T13:35:24.480Z,5.80
2018-08-20T13:37:52.765Z,5.43
2018-08-20T13:40:21.125Z,6.23
2018-08-20T13:42:49.448Z,6.03
2018-08-20T13:45:17.740Z,5.67
2018-08-20T13:47:46.021Z,6.20
2018-08-20T13:50:14.783Z,6.03
2018-08-20T13:52:45.030Z,5.90
2018-08-20T13:55:13.316Z,5.40
2018-08-20T13:57:48.666Z,5.40
2018-08-20T14:00:20.149Z,4.83
2018-08-20T14:02:48.485Z,5.70
2018-08-20T14:05:17.508Z,6.10
2018-08-20T14:07:46.394Z,5.80
2018-08-20T14:10:14.757Z,5.40
2018-08-20T14:12:43.458Z,5.80
2018-08-20T14:15:12.835Z,5.13
2018-08-20T14:17:42.039Z,5.97
2018-08-20T14:20:12.348Z,5.60
2018-08-20T14:22:41.720Z,5.57
2018-08-20T14:25:10.064Z,5.80
2018-08-20T14:27:38.330Z,5.73
2018-08-20T14:30:10.520Z,5.87
2018-08-20T14:32:38.813Z,5.87
2018-08-20T14:35:07.846Z,5.50
2018-08-20T14:37:36.112Z,5.87
2018-08-20T14:40:06.785Z,5.70
2018-08-20T14:42:35.044Z,5.63
2018-08-20T14:45:03.357Z,5.60
2018-08-20T14:47:31.671Z,6.07
2018-08-20T14:49:59.910Z,6.00
2018-08-20T14:52:28.253Z,5.60
2018-08-20T14:54:56.545Z,5.90
2018-08-20T14:57:24.812Z,5.87
2018-08-20T14:59:53.085Z,5.83
2018-08-20T15:02:21.366Z,5.87
2018-08-20T15:04:49.626Z,5.40
2018-08-20T15:07:17.935Z,5.77
2018-08-20T15:09:46.216Z,8.87
2018-08-20T15:12:14.488Z,10.13
2018-08-20T15:14:42.778Z,6.00
2018-08-20T15:17:11.054Z,5.80
2018-08-20T15:19:39.338Z,7.10
2018-08-20T15:22:07.662Z,6.03
2018-08-20T15:24:35.953Z,5.50
2018-08-20T15:27:04.229Z,5.30
2018-08-20T15:29:32.501Z,5.43
2018-08-20T15:32:00.782Z,6.00
2018-08-20T15:34:29.052Z,5.87
2018-08-20T15:36:57.325Z,5.53
2018-08-20T15:39:25.673Z,6.47
2018-08-20T15:41:53.880Z,5.43
2018-08-20T15:44:22.151Z,6.10
2018-08-20T15:46:50.419Z,6.23
2018-08-20T15:49:18.687Z,6.70
2018-08-20T15:51:46.990Z,5.87
2018-08-20T15:54:15.983Z,6.00
2018-08-20T15:56:44.366Z,5.43
2018-08-20T15:59:12.730Z,5.70
2018-08-20T16:01:41.016Z,6.03
2018-08-20T16:04:09.288Z,6.10
2018-08-20T16:06:37.618Z,5.80
2018-08-20T16:09:07.578Z,5.83
2018-08-20T16:11:35.847Z,5.90
2018-08-20T16:14:04.205Z,5.70
2018-08-20T16:16:32.480Z,6.00
2018-08-20T16:19:00.761Z,5.93
2018-08-20T16:21:29.041Z,5.50
2018-08-20T16:23:57.337Z,5.77
2018-08-20T16:26:25.626Z,5.83
2018-08-20T16:28:53.890Z,5.93
2018-08-20T16:31:22.167Z,5.50
2018-08-20T16:33:50.460Z,5.67
2018-08-20T16:36:18.757Z,5.87
2018-08-20T16:38:47.068Z,5.63
2018-08-20T16:41:15.372Z,5.60
2018-08-20T16:43:43.676Z,5.43
2018-08-20T16:46:12.036Z,5.27
2018-08-20T16:48:40.342Z,5.97
2018-08-20T16:51:08.663Z,5.47
2018-08-20T16:53:36.963Z,5.47
2018-08-20T16:56:05.253Z,5.57
2018-08-20T16:58:33.557Z,6.20
2018-08-20T17:01:01.826Z,5.40
2018-08-20T17:03:30.581Z,5.30
2018-08-20T17:05:58.873Z,6.10
2018-08-20T17:08:31.434Z,5.67
2018-08-20T17:10:59.728Z,5.73
2018-08-20T17:13:28.048Z,5.30
2018-08-20T17:15:56.321Z,5.70
2018-08-20T17:18:24.608Z,5.57
2018-08-20T17:20:52.897Z,5.87
2018-08-20T17:23:22.922Z,5.50
2018-08-20T17:25:57.608Z,5.67
2018-08-20T17:28:27.044Z,5.37
2018-08-20T17:30:57.646Z,5.43
2018-08-20T17:33:29.272Z,6.00
2018-08-20T17:35:57.549Z,6.00
2018-08-20T17:38:25.822Z,5.77
2018-08-20T17:40:54.206Z,5.73
2018-08-20T17:43:22.484Z,6.00
2018-08-20T17:45:50.782Z,5.67
2018-08-20T17:48:24.462Z,5.63
2018-08-20T17:50:52.919Z,5.37
2018-08-20T17:53:21.193Z,5.93
2018-08-20T17:55:49.488Z,5.67
2018-08-20T17:58:17.780Z,5.53
2018-08-20T18:00:55.363Z,5.57
2018-08-20T18:03:29.669Z,5.97
2018-08-20T18:05:59.244Z,5.43
2018-08-20T18:08:28.769Z,5.63
2018-08-20T18:10:57.200Z,5.77
2018-08-20T18:13:49.588Z,5.70
2018-08-20T18:16:19.187Z,5.60
2018-08-20T18:18:51.592Z,5.40
2018-08-20T18:21:19.988Z,5.17
2018-08-20T18:23:48.293Z,6.03
2018-08-20T18:26:16.596Z,5.40
2018-08-20T18:28:53.595Z,5.07
2018-08-20T18:31:23.901Z,5.63
2018-08-20T18:33:52.489Z,5.70
2018-08-20T18:36:22.103Z,5.57
2018-08-20T18:38:51.711Z,5.40
2018-08-20T18:41:21.460Z,5.77
2018-08-20T18:43:49.867Z,6.00
2018-08-20T18:46:18.175Z,5.30
2018-08-20T18:48:46.444Z,5.70
2018-08-20T18:51:16.575Z,9.50
2018-08-20T18:53:44.884Z,5.47
2018-08-20T18:56:14.862Z,5.80
2018-08-20T18:58:43.866Z,11.00
2018-08-20T19:01:12.476Z,7.27
2018-08-20T19:03:48.208Z,19.77
2018-08-20T19:06:17.734Z,15.30
2018-08-20T19:08:46.069Z,7.17
2018-08-20T19:11:14.381Z,14.50
2018-08-20T19:13:44.171Z,12.27
2018-08-20T19:16:37.029Z,12.30
2018-08-20T19:19:06.357Z,7.17
2018-08-20T19:21:39.076Z,7.67
2018-08-20T19:24:08.317Z,6.70
2018-08-20T19:26:36.751Z,7.10
2018-08-20T19:29:39.193Z,6.40
2018-08-20T19:32:08.577Z,24.63
2018-08-20T19:34:37.237Z,47.13
2018-08-20T19:37:06.149Z,8.63
2018-08-20T19:39:34.745Z,26.93
2018-08-20T19:42:03.133Z,7.63
2018-08-20T19:44:31.416Z,6.73
2018-08-20T19:46:59.697Z,6.83
2018-08-20T19:49:28.052Z,10.63
2018-08-20T19:51:56.369Z,7.67
2018-08-20T19:54:24.665Z,7.70
2018-08-20T19:56:52.969Z,8.83
2018-08-20T19:59:27.125Z,7.30
2018-08-20T20:01:55.861Z,7.53
2018-08-20T20:04:24.188Z,8.93
2018-08-20T20:06:52.487Z,7.17
2018-08-20T20:09:20.777Z,6.63
2018-08-20T20:11:50.396Z,6.57
2018-08-20T20:14:18.713Z,6.37
2018-08-20T20:16:54.141Z,6.27
2018-08-20T20:19:22.541Z,5.70
2018-08-20T20:21:50.816Z,5.97
2018-08-20T20:24:19.105Z,6.37
2018-08-20T20:26:47.417Z,5.80
2018-08-20T20:29:15.800Z,5.70
2018-08-20T20:31:44.016Z,5.93
2018-08-20T20:34:12.348Z,6.07
2018-08-20T20:36:40.833Z,5.87
2018-08-20T20:39:10.562Z,5.60
2018-08-20T20:41:38.883Z,6.07
2018-08-20T20:44:07.860Z,6.00
2018-08-20T20:46:36.172Z,6.53
2018-08-20T20:49:04.525Z,6.33
2018-08-20T20:51:32.833Z,5.77
2018-08-20T20:54:01.160Z,6.13
2018-08-20T20:56:29.718Z,6.30
2018-08-20T20:58:58.117Z,6.20
2018-08-20T21:01:26.408Z,6.87
2018-08-20T21:03:54.706Z,7.27
2018-08-20T21:06:23.013Z,7.47
2018-08-20T21:08:51.925Z,6.93
2018-08-20T21:11:21.560Z,6.00
2018-08-20T21:13:49.837Z,6.70
2018-08-20T21:16:22.321Z,5.83
2018-08-20T21:18:55.781Z,6.73
2018-08-20T21:21:24.588Z,6.67
2018-08-20T21:23:53.297Z,6.77
2018-08-20T21:26:21.569Z,6.47
2018-08-20T21:28:51.745Z,6.70
2018-08-20T21:31:27.864Z,6.63
2018-08-20T21:33:58.132Z,6.50
2018-08-20T21:36:26.445Z,6.53
2018-08-20T21:38:54.753Z,6.47
2018-08-20T21:41:25.619Z,6.53
2018-08-20T21:43:54.317Z,6.60
2018-08-20T21:46:22.666Z,6.50
2018-08-20T21:48:50.973Z,6.87
2018-08-20T21:51:24.109Z,6.60
2018-08-20T21:53:52.400Z,7.00
2018-08-20T21:56:20.700Z,7.17
2018-08-20T21:58:48.994Z,7.07
2018-08-20T22:01:17.834Z,7.27
2018-08-20T22:03:46.356Z,6.57
2018-08-20T22:06:14.941Z,7.00
2018-08-20T22:08:43.304Z,6.73
2018-08-20T22:11:12.098Z,6.77
2018-08-20T22:13:40.465Z,7.23
2018-08-20T22:16:20.647Z,7.20
2018-08-20T22:18:55.471Z,10.80
2018-08-20T22:21:24.176Z,8.03
2018-08-20T22:23:56.360Z,7.23
2018-08-20T22:26:24.665Z,8.00
2018-08-20T22:28:52.970Z,7.60
2018-08-20T22:31:21.454Z,7.60
2018-08-20T22:33:58.872Z,6.80
2018-08-20T22:36:28.465Z,7.80
2018-08-20T22:39:01.760Z,7.30
2018-08-20T22:41:30.952Z,6.90
2018-08-20T22:43:59.219Z,6.63
2018-08-20T22:46:27.500Z,7.00
2018-08-20T22:48:58.461Z,7.23
2018-08-20T22:51:27.946Z,6.63
2018-08-20T22:53:58.582Z,6.90
2018-08-20T22:56:32.383Z,7.03
2018-08-20T22:59:06.452Z,7.23
2018-08-20T23:01:34.764Z,7.00
2018-08-20T23:04:03.100Z,7.50
2018-08-20T23:06:31.396Z,6.97
2018-08-20T23:09:03.276Z,7.33
2018-08-20T23:11:42.100Z,7.50
2018-08-20T23:14:11.935Z,6.50
2018-08-20T23:16:40.514Z,6.90
2018-08-20T23:19:09.509Z,7.40
2018-08-20T23:21:43.704Z,7.50
2018-08-20T23:24:12.917Z,7.60
2018-08-20T23:26:41.237Z,8.17
2018-08-20T23:29:09.791Z,7.83
2018-08-20T23:31:38.564Z,7.90
2018-08-20T23:34:08.784Z,8.30
2018-08-20T23:36:37.362Z,7.80
2018-08-20T23:39:07.729Z,8.10
2018-08-20T23:41:36.119Z,8.40
2018-08-20T23:44:04.417Z,8.27
2018-08-20T23:46:41.158Z,8.40
2018-08-20T23:49:09.445Z,8.60
2018-08-20T23:51:37.809Z,8.43
2018-08-20T23:54:06.180Z,8.00
2018-08-20T23:56:34.509Z,8.63
2018-08-20T23:59:02.827Z,8.47
